sensor_id;sensor_type;location;lat;lon;timestamp;temperature;humidity
51007;DHT22;37034;47.886;-3.904;2024-03-08T00:00:15;12.50;97.00
51007;DHT22;37034;47.886;-3.904;2024-03-08T00:02:47;12.60;97.10
51007;DHT22;37034;47.886;-3.904;2024-03-08T00:05:14;12.60;97.10
51007;DHT22;37034;47.886;-3.904;2024-03-08T00:07:41;12.60;97.00
51007;DHT22;37034;47.886;-3.904;2024-03-08T00:10:07;12.60;97.20
51007;DHT22;37034;47.886;-3.904;2024-03-08T00:12:45;12.70;97.10
51007;DHT22;37034;47.886;-3.904;2024-03-08T00:15:12;12.70;96.90
51007;DHT22;37034;47.886;-3.904;2024-03-08T00:17:40;12.80;97.00
51007;DHT22;37034;47.886;-3.904;2024-03-08T00:20:06;12.80;97.00
51007;DHT22;37034;47.886;-3.904;2024-03-08T00:22:37;12.80;97.20
51007;DHT22;37034;47.886;-3.904;2024-03-08T00:25:04;12.80;97.10
51007;DHT22;37034;47.886;-3.904;2024-03-08T00:27:30;12.80;97.10
51007;DHT22;37034;47.886;-3.904;2024-03-08T00:29:57;12.80;97.10
51007;DHT22;37034;47.886;-3.904;2024-03-08T00:32:22;12.80;97.00
51007;DHT22;37034;47.886;-3.904;2024-03-08T00:34:51;12.80;97.10
51007;DHT22;37034;47.886;-3.904;2024-03-08T00:37:22;12.70;97.30
51007;DHT22;37034;47.886;-3.904;2024-03-08T00:39:49;12.50;97.40
51007;DHT22;37034;47.886;-3.904;2024-03-08T00:42:15;12.60;97.40
51007;DHT22;37034;47.886;-3.904;2024-03-08T00:44:41;12.60;97.40
51007;DHT22;37034;47.886;-3.904;2024-03-08T00:47:07;12.60;97.50
51007;DHT22;37034;47.886;-3.904;2024-03-08T00:49:32;12.60;97.50
51007;DHT22;37034;47.886;-3.904;2024-03-08T00:51:58;12.50;97.70
51007;DHT22;37034;47.886;-3.904;2024-03-08T00:54:24;12.50;97.70
51007;DHT22;37034;47.886;-3.904;2024-03-08T00:56:49;12.50;97.60
51007;DHT22;37034;47.886;-3.904;2024-03-08T00:59:16;12.60;97.60
51007;DHT22;37034;47.886;-3.904;2024-03-08T01:01:41;12.60;97.60
51007;DHT22;37034;47.886;-3.904;2024-03-08T01:04:07;12.50;97.70
51007;DHT22;37034;47.886;-3.904;2024-03-08T01:06:34;12.40;97.80
51007;DHT22;37034;47.886;-3.904;2024-03-08T01:08:59;12.50;98.00
51007;DHT22;37034;47.886;-3.904;2024-03-08T01:11:25;12.50;97.70
51007;DHT22;37034;47.886;-3.904;2024-03-08T01:13:51;12.30;97.90
51007;DHT22;37034;47.886;-3.904;2024-03-08T01:16:17;12.20;98.00
51007;DHT22;37034;47.886;-3.904;2024-03-08T01:18:43;12.10;98.10
51007;DHT22;37034;47.886;-3.904;2024-03-08T01:21:09;12.20;98.20
51007;DHT22;37034;47.886;-3.904;2024-03-08T01:23:35;12.10;98.20
51007;DHT22;37034;47.886;-3.904;2024-03-08T01:26:00;12.10;98.30
51007;DHT22;37034;47.886;-3.904;2024-03-08T01:28:28;12.20;98.20
51007;DHT22;37034;47.886;-3.904;2024-03-08T01:30:53;12.20;98.20
51007;DHT22;37034;47.886;-3.904;2024-03-08T01:33:26;12.20;98.30
51007;DHT22;37034;47.886;-3.904;2024-03-08T01:35:55;12.10;98.30
51007;DHT22;37034;47.886;-3.904;2024-03-08T01:38:22;12.10;98.20
51007;DHT22;37034;47.886;-3.904;2024-03-08T01:40:49;12.10;98.30
51007;DHT22;37034;47.886;-3.904;2024-03-08T01:43:28;12.10;98.30
51007;DHT22;37034;47.886;-3.904;2024-03-08T01:46:03;12.10;98.30
51007;DHT22;37034;47.886;-3.904;2024-03-08T01:48:30;12.00;98.30
51007;DHT22;37034;47.886;-3.904;2024-03-08T01:50:58;12.00;98.50
51007;DHT22;37034;47.886;-3.904;2024-03-08T01:53:24;12.00;98.50
51007;DHT22;37034;47.886;-3.904;2024-03-08T01:55:53;12.10;98.50
51007;DHT22;37034;47.886;-3.904;2024-03-08T01:58:20;12.10;98.40
51007;DHT22;37034;47.886;-3.904;2024-03-08T02:00:48;12.20;98.20
51007;DHT22;37034;47.886;-3.904;2024-03-08T02:03:17;12.10;98.20
51007;DHT22;37034;47.886;-3.904;2024-03-08T02:05:42;12.00;98.30
51007;DHT22;37034;47.886;-3.904;2024-03-08T02:08:09;11.90;98.50
51007;DHT22;37034;47.886;-3.904;2024-03-08T02:10:44;11.80;98.70
51007;DHT22;37034;47.886;-3.904;2024-03-08T02:13:10;11.80;98.80
51007;DHT22;37034;47.886;-3.904;2024-03-08T02:15:56;11.80;98.70
51007;DHT22;37034;47.886;-3.904;2024-03-08T02:18:22;11.80;98.80
51007;DHT22;37034;47.886;-3.904;2024-03-08T02:20:52;11.90;98.70
51007;DHT22;37034;47.886;-3.904;2024-03-08T02:23:19;11.90;98.50
51007;DHT22;37034;47.886;-3.904;2024-03-08T02:25:45;11.80;98.50
51007;DHT22;37034;47.886;-3.904;2024-03-08T02:28:12;11.90;98.80
51007;DHT22;37034;47.886;-3.904;2024-03-08T02:30:38;11.90;98.60
51007;DHT22;37034;47.886;-3.904;2024-03-08T02:33:04;12.00;98.80
51007;DHT22;37034;47.886;-3.904;2024-03-08T02:35:30;12.00;98.40
51007;DHT22;37034;47.886;-3.904;2024-03-08T02:37:56;12.10;98.50
51007;DHT22;37034;47.886;-3.904;2024-03-08T02:40:21;12.00;98.30
51007;DHT22;37034;47.886;-3.904;2024-03-08T02:42:47;11.90;98.60
51007;DHT22;37034;47.886;-3.904;2024-03-08T02:45:13;12.00;98.50
51007;DHT22;37034;47.886;-3.904;2024-03-08T02:47:39;11.90;98.50
51007;DHT22;37034;47.886;-3.904;2024-03-08T02:50:05;11.90;98.50
51007;DHT22;37034;47.886;-3.904;2024-03-08T02:52:34;12.00;98.70
51007;DHT22;37034;47.886;-3.904;2024-03-08T02:54:59;12.00;98.50
51007;DHT22;37034;47.886;-3.904;2024-03-08T02:57:25;12.00;98.60
51007;DHT22;37034;47.886;-3.904;2024-03-08T02:59:51;12.10;98.60
51007;DHT22;37034;47.886;-3.904;2024-03-08T03:02:16;12.00;98.50
51007;DHT22;37034;47.886;-3.904;2024-03-08T03:04:42;12.10;98.50
51007;DHT22;37034;47.886;-3.904;2024-03-08T03:07:08;12.10;98.30
51007;DHT22;37034;47.886;-3.904;2024-03-08T03:09:34;12.00;98.50
51007;DHT22;37034;47.886;-3.904;2024-03-08T03:12:00;12.10;98.40
51007;DHT22;37034;47.886;-3.904;2024-03-08T03:14:26;12.00;98.50
51007;DHT22;37034;47.886;-3.904;2024-03-08T03:16:52;12.00;98.50
51007;DHT22;37034;47.886;-3.904;2024-03-08T03:19:18;12.00;98.60
51007;DHT22;37034;47.886;-3.904;2024-03-08T03:21:44;11.90;98.60
51007;DHT22;37034;47.886;-3.904;2024-03-08T03:24:10;11.90;98.90
51007;DHT22;37034;47.886;-3.904;2024-03-08T03:26:38;11.90;99.20
51007;DHT22;37034;47.886;-3.904;2024-03-08T03:29:07;11.90;99.50
51007;DHT22;37034;47.886;-3.904;2024-03-08T03:31:34;12.00;99.60
51007;DHT22;37034;47.886;-3.904;2024-03-08T03:34:00;12.00;99.80
51007;DHT22;37034;47.886;-3.904;2024-03-08T03:36:32;12.00;99.90
51007;DHT22;37034;47.886;-3.904;2024-03-08T03:38:58;12.10;99.90
51007;DHT22;37034;47.886;-3.904;2024-03-08T03:41:38;12.00;99.90
51007;DHT22;37034;47.886;-3.904;2024-03-08T03:44:05;12.00;99.90
51007;DHT22;37034;47.886;-3.904;2024-03-08T03:46:34;12.00;99.90
51007;DHT22;37034;47.886;-3.904;2024-03-08T03:48:59;12.00;99.90
51007;DHT22;37034;47.886;-3.904;2024-03-08T03:51:25;12.00;99.90
51007;DHT22;37034;47.886;-3.904;2024-03-08T03:53:51;12.00;99.90
51007;DHT22;37034;47.886;-3.904;2024-03-08T03:56:18;12.00;99.90
51007;DHT22;37034;47.886;-3.904;2024-03-08T03:58:44;12.00;99.90
51007;DHT22;37034;47.886;-3.904;2024-03-08T04:01:10;11.90;99.90
51007;DHT22;37034;47.886;-3.904;2024-03-08T04:03:35;11.80;99.90
51007;DHT22;37034;47.886;-3.904;2024-03-08T04:06:05;11.80;99.90
51007;DHT22;37034;47.886;-3.904;2024-03-08T04:08:31;11.80;99.90
51007;DHT22;37034;47.886;-3.904;2024-03-08T04:11:00;11.80;99.90
51007;DHT22;37034;47.886;-3.904;2024-03-08T04:13:25;11.70;99.90
51007;DHT22;37034;47.886;-3.904;2024-03-08T04:15:51;11.70;99.90
51007;DHT22;37034;47.886;-3.904;2024-03-08T04:18:17;11.60;99.90
51007;DHT22;37034;47.886;-3.904;2024-03-08T04:20:44;11.70;99.90
51007;DHT22;37034;47.886;-3.904;2024-03-08T04:23:10;11.70;99.90
51007;DHT22;37034;47.886;-3.904;2024-03-08T04:25:35;11.80;99.90
51007;DHT22;37034;47.886;-3.904;2024-03-08T04:28:01;11.90;99.90
51007;DHT22;37034;47.886;-3.904;2024-03-08T04:30:27;11.90;99.90
51007;DHT22;37034;47.886;-3.904;2024-03-08T04:32:53;11.90;99.90
51007;DHT22;37034;47.886;-3.904;2024-03-08T04:35:19;12.00;99.90
51007;DHT22;37034;47.886;-3.904;2024-03-08T04:37:45;11.90;99.90
51007;DHT22;37034;47.886;-3.904;2024-03-08T04:40:11;11.80;99.90
51007;DHT22;37034;47.886;-3.904;2024-03-08T04:42:37;11.70;99.90
51007;DHT22;37034;47.886;-3.904;2024-03-08T04:45:04;11.60;99.90
51007;DHT22;37034;47.886;-3.904;2024-03-08T04:47:30;11.50;99.90
51007;DHT22;37034;47.886;-3.904;2024-03-08T04:49:56;11.50;99.90
51007;DHT22;37034;47.886;-3.904;2024-03-08T04:52:23;11.50;99.90
51007;DHT22;37034;47.886;-3.904;2024-03-08T04:54:49;11.50;99.90
51007;DHT22;37034;47.886;-3.904;2024-03-08T04:57:15;11.60;99.90
51007;DHT22;37034;47.886;-3.904;2024-03-08T04:59:43;11.50;99.90
51007;DHT22;37034;47.886;-3.904;2024-03-08T05:02:09;11.40;99.90
51007;DHT22;37034;47.886;-3.904;2024-03-08T05:04:34;11.40;99.90
51007;DHT22;37034;47.886;-3.904;2024-03-08T05:07:01;11.50;99.90
51007;DHT22;37034;47.886;-3.904;2024-03-08T05:09:27;11.50;99.90
51007;DHT22;37034;47.886;-3.904;2024-03-08T05:11:57;11.40;99.90
51007;DHT22;37034;47.886;-3.904;2024-03-08T05:14:25;11.40;99.90
51007;DHT22;37034;47.886;-3.904;2024-03-08T05:16:51;11.20;99.90
51007;DHT22;37034;47.886;-3.904;2024-03-08T05:19:17;11.30;99.90
51007;DHT22;37034;47.886;-3.904;2024-03-08T05:21:44;11.40;99.90
51007;DHT22;37034;47.886;-3.904;2024-03-08T05:24:10;11.50;99.90
51007;DHT22;37034;47.886;-3.904;2024-03-08T05:26:36;11.40;99.90
51007;DHT22;37034;47.886;-3.904;2024-03-08T05:29:03;11.30;99.90
51007;DHT22;37034;47.886;-3.904;2024-03-08T05:31:29;11.20;99.90
51007;DHT22;37034;47.886;-3.904;2024-03-08T05:33:56;11.20;99.90
51007;DHT22;37034;47.886;-3.904;2024-03-08T05:36:22;11.20;99.90
51007;DHT22;37034;47.886;-3.904;2024-03-08T05:38:47;11.20;99.90
51007;DHT22;37034;47.886;-3.904;2024-03-08T05:41:16;11.20;99.90
51007;DHT22;37034;47.886;-3.904;2024-03-08T05:43:42;11.30;99.90
51007;DHT22;37034;47.886;-3.904;2024-03-08T05:46:09;11.40;99.90
51007;DHT22;37034;47.886;-3.904;2024-03-08T05:48:37;11.50;99.90
51007;DHT22;37034;47.886;-3.904;2024-03-08T05:51:03;11.40;99.90
51007;DHT22;37034;47.886;-3.904;2024-03-08T05:53:29;11.50;99.90
51007;DHT22;37034;47.886;-3.904;2024-03-08T05:55:58;11.40;99.90
51007;DHT22;37034;47.886;-3.904;2024-03-08T05:58:24;11.20;99.90
51007;DHT22;37034;47.886;-3.904;2024-03-08T06:00:50;11.10;99.90
51007;DHT22;37034;47.886;-3.904;2024-03-08T06:03:15;11.10;99.90
51007;DHT22;37034;47.886;-3.904;2024-03-08T06:05:41;11.20;99.90
51007;DHT22;37034;47.886;-3.904;2024-03-08T06:08:07;11.10;99.90
51007;DHT22;37034;47.886;-3.904;2024-03-08T06:10:33;11.10;99.90
51007;DHT22;37034;47.886;-3.904;2024-03-08T06:12:59;11.10;99.90
51007;DHT22;37034;47.886;-3.904;2024-03-08T06:15:25;11.20;99.90
51007;DHT22;37034;47.886;-3.904;2024-03-08T06:17:51;11.20;99.90
51007;DHT22;37034;47.886;-3.904;2024-03-08T06:20:18;11.20;99.90
51007;DHT22;37034;47.886;-3.904;2024-03-08T06:22:44;11.20;99.90
51007;DHT22;37034;47.886;-3.904;2024-03-08T06:25:14;11.10;99.90
51007;DHT22;37034;47.886;-3.904;2024-03-08T06:27:41;11.10;99.90
51007;DHT22;37034;47.886;-3.904;2024-03-08T06:30:08;10.90;99.90
51007;DHT22;37034;47.886;-3.904;2024-03-08T06:32:35;10.90;99.90
51007;DHT22;37034;47.886;-3.904;2024-03-08T06:35:05;10.90;99.90
51007;DHT22;37034;47.886;-3.904;2024-03-08T06:37:34;11.00;99.90
51007;DHT22;37034;47.886;-3.904;2024-03-08T06:40:01;11.00;99.90
51007;DHT22;37034;47.886;-3.904;2024-03-08T06:42:27;11.00;99.90
51007;DHT22;37034;47.886;-3.904;2024-03-08T06:44:53;11.10;99.90
51007;DHT22;37034;47.886;-3.904;2024-03-08T06:47:21;11.10;99.90
51007;DHT22;37034;47.886;-3.904;2024-03-08T06:49:51;11.10;99.90
51007;DHT22;37034;47.886;-3.904;2024-03-08T06:52:17;11.00;99.90
51007;DHT22;37034;47.886;-3.904;2024-03-08T06:54:43;11.00;99.90
51007;DHT22;37034;47.886;-3.904;2024-03-08T06:57:08;11.00;99.90
51007;DHT22;37034;47.886;-3.904;2024-03-08T06:59:36;11.00;99.90
51007;DHT22;37034;47.886;-3.904;2024-03-08T07:02:02;11.00;99.90
51007;DHT22;37034;47.886;-3.904;2024-03-08T07:04:28;11.10;99.90
51007;DHT22;37034;47.886;-3.904;2024-03-08T07:06:58;11.10;99.90
51007;DHT22;37034;47.886;-3.904;2024-03-08T07:09:24;11.00;99.90
51007;DHT22;37034;47.886;-3.904;2024-03-08T07:11:50;11.00;99.90
51007;DHT22;37034;47.886;-3.904;2024-03-08T07:14:24;11.00;99.90
51007;DHT22;37034;47.886;-3.904;2024-03-08T07:16:50;11.00;99.90
51007;DHT22;37034;47.886;-3.904;2024-03-08T07:19:16;11.10;99.90
51007;DHT22;37034;47.886;-3.904;2024-03-08T07:21:45;11.10;99.90
51007;DHT22;37034;47.886;-3.904;2024-03-08T07:24:13;11.20;99.90
51007;DHT22;37034;47.886;-3.904;2024-03-08T07:26:47;11.20;99.90
51007;DHT22;37034;47.886;-3.904;2024-03-08T07:29:18;11.20;99.90
51007;DHT22;37034;47.886;-3.904;2024-03-08T07:31:43;11.40;99.90
51007;DHT22;37034;47.886;-3.904;2024-03-08T07:34:28;11.30;99.90
51007;DHT22;37034;47.886;-3.904;2024-03-08T07:36:57;11.30;99.90
51007;DHT22;37034;47.886;-3.904;2024-03-08T07:39:23;11.30;99.90
51007;DHT22;37034;47.886;-3.904;2024-03-08T07:41:49;11.40;99.90
51007;DHT22;37034;47.886;-3.904;2024-03-08T07:44:18;11.50;99.90
51007;DHT22;37034;47.886;-3.904;2024-03-08T07:46:44;11.50;99.90
51007;DHT22;37034;47.886;-3.904;2024-03-08T07:49:10;11.50;99.90
51007;DHT22;37034;47.886;-3.904;2024-03-08T07:51:37;11.50;99.90
51007;DHT22;37034;47.886;-3.904;2024-03-08T07:54:04;11.60;99.90
51007;DHT22;37034;47.886;-3.904;2024-03-08T07:56:30;11.70;99.90
51007;DHT22;37034;47.886;-3.904;2024-03-08T07:58:56;11.60;99.90
51007;DHT22;37034;47.886;-3.904;2024-03-08T08:01:22;11.70;99.90
51007;DHT22;37034;47.886;-3.904;2024-03-08T08:03:48;11.80;99.90
51007;DHT22;37034;47.886;-3.904;2024-03-08T08:06:16;11.80;99.90
51007;DHT22;37034;47.886;-3.904;2024-03-08T08:08:42;11.90;99.90
51007;DHT22;37034;47.886;-3.904;2024-03-08T08:11:08;11.90;99.90
51007;DHT22;37034;47.886;-3.904;2024-03-08T08:13:35;12.00;99.90
51007;DHT22;37034;47.886;-3.904;2024-03-08T08:16:02;12.00;99.90
51007;DHT22;37034;47.886;-3.904;2024-03-08T08:18:28;12.00;99.90
51007;DHT22;37034;47.886;-3.904;2024-03-08T08:20:55;11.70;99.90
51007;DHT22;37034;47.886;-3.904;2024-03-08T08:23:20;11.70;99.90
51007;DHT22;37034;47.886;-3.904;2024-03-08T08:25:47;11.80;99.90
51007;DHT22;37034;47.886;-3.904;2024-03-08T08:28:16;11.90;99.90
51007;DHT22;37034;47.886;-3.904;2024-03-08T08:30:43;12.00;99.90
51007;DHT22;37034;47.886;-3.904;2024-03-08T08:33:09;11.90;99.90
51007;DHT22;37034;47.886;-3.904;2024-03-08T08:35:36;11.80;99.90
51007;DHT22;37034;47.886;-3.904;2024-03-08T08:38:03;11.80;99.90
51007;DHT22;37034;47.886;-3.904;2024-03-08T08:40:29;11.80;99.90
51007;DHT22;37034;47.886;-3.904;2024-03-08T08:42:56;11.90;99.90
51007;DHT22;37034;47.886;-3.904;2024-03-08T08:45:25;12.00;99.90
51007;DHT22;37034;47.886;-3.904;2024-03-08T08:47:52;12.10;99.90
51007;DHT22;37034;47.886;-3.904;2024-03-08T08:50:17;12.10;99.90
51007;DHT22;37034;47.886;-3.904;2024-03-08T08:52:49;12.20;99.90
51007;DHT22;37034;47.886;-3.904;2024-03-08T08:55:15;12.30;99.90
51007;DHT22;37034;47.886;-3.904;2024-03-08T08:57:41;12.30;99.90
51007;DHT22;37034;47.886;-3.904;2024-03-08T09:00:07;12.30;99.90
51007;DHT22;37034;47.886;-3.904;2024-03-08T09:02:40;12.30;99.90
51007;DHT22;37034;47.886;-3.904;2024-03-08T09:05:06;12.20;99.90
51007;DHT22;37034;47.886;-3.904;2024-03-08T09:07:33;12.20;99.90
51007;DHT22;37034;47.886;-3.904;2024-03-08T09:10:00;12.20;99.90
51007;DHT22;37034;47.886;-3.904;2024-03-08T09:12:26;12.40;99.90
51007;DHT22;37034;47.886;-3.904;2024-03-08T09:14:52;12.40;99.90
51007;DHT22;37034;47.886;-3.904;2024-03-08T09:17:17;12.40;99.90
51007;DHT22;37034;47.886;-3.904;2024-03-08T09:19:46;12.50;99.90
51007;DHT22;37034;47.886;-3.904;2024-03-08T09:22:13;12.50;99.90
51007;DHT22;37034;47.886;-3.904;2024-03-08T09:24:39;12.50;99.90
51007;DHT22;37034;47.886;-3.904;2024-03-08T09:27:05;12.60;99.90
51007;DHT22;37034;47.886;-3.904;2024-03-08T09:29:30;12.60;99.90
51007;DHT22;37034;47.886;-3.904;2024-03-08T09:31:56;12.60;99.90
51007;DHT22;37034;47.886;-3.904;2024-03-08T09:34:22;12.60;99.90
51007;DHT22;37034;47.886;-3.904;2024-03-08T09:36:49;12.70;99.90
51007;DHT22;37034;47.886;-3.904;2024-03-08T09:39:16;12.70;99.90
51007;DHT22;37034;47.886;-3.904;2024-03-08T09:41:46;12.80;99.90
51007;DHT22;37034;47.886;-3.904;2024-03-08T09:44:18;12.70;99.90
51007;DHT22;37034;47.886;-3.904;2024-03-08T09:46:46;12.90;99.90
51007;DHT22;37034;47.886;-3.904;2024-03-08T09:49:17;13.00;99.90
51007;DHT22;37034;47.886;-3.904;2024-03-08T09:51:42;13.20;99.90
51007;DHT22;37034;47.886;-3.904;2024-03-08T09:54:08;13.20;99.90
51007;DHT22;37034;47.886;-3.904;2024-03-08T09:56:35;13.30;99.90
51007;DHT22;37034;47.886;-3.904;2024-03-08T09:59:02;13.30;99.90
51007;DHT22;37034;47.886;-3.904;2024-03-08T10:01:37;13.30;99.90
51007;DHT22;37034;47.886;-3.904;2024-03-08T10:04:04;13.30;99.90
51007;DHT22;37034;47.886;-3.904;2024-03-08T10:06:29;13.40;99.90
51007;DHT22;37034;47.886;-3.904;2024-03-08T10:08:56;13.60;99.90
51007;DHT22;37034;47.886;-3.904;2024-03-08T10:11:23;13.70;99.90
51007;DHT22;37034;47.886;-3.904;2024-03-08T10:13:50;13.80;99.90
51007;DHT22;37034;47.886;-3.904;2024-03-08T10:16:16;13.80;99.90
51007;DHT22;37034;47.886;-3.904;2024-03-08T10:18:42;13.80;99.90
51007;DHT22;37034;47.886;-3.904;2024-03-08T10:21:11;13.90;99.90
51007;DHT22;37034;47.886;-3.904;2024-03-08T10:23:39;14.00;99.90
51007;DHT22;37034;47.886;-3.904;2024-03-08T10:26:17;14.00;99.90
51007;DHT22;37034;47.886;-3.904;2024-03-08T10:28:45;14.10;99.90
51007;DHT22;37034;47.886;-3.904;2024-03-08T10:31:13;14.10;99.90
51007;DHT22;37034;47.886;-3.904;2024-03-08T10:33:40;13.90;99.90
51007;DHT22;37034;47.886;-3.904;2024-03-08T10:36:10;13.90;99.90
51007;DHT22;37034;47.886;-3.904;2024-03-08T10:38:38;13.80;99.90
51007;DHT22;37034;47.886;-3.904;2024-03-08T10:41:08;13.90;99.90
51007;DHT22;37034;47.886;-3.904;2024-03-08T10:49:17;14.00;99.90
51007;DHT22;37034;47.886;-3.904;2024-03-08T10:51:44;14.00;99.90
51007;DHT22;37034;47.886;-3.904;2024-03-08T10:54:11;14.00;99.90
51007;DHT22;37034;47.886;-3.904;2024-03-08T10:56:38;14.00;99.90
51007;DHT22;37034;47.886;-3.904;2024-03-08T10:59:07;14.00;99.90
51007;DHT22;37034;47.886;-3.904;2024-03-08T11:01:34;14.10;99.90
51007;DHT22;37034;47.886;-3.904;2024-03-08T11:03:59;14.20;99.90
51007;DHT22;37034;47.886;-3.904;2024-03-08T11:09:03;14.30;99.90
51007;DHT22;37034;47.886;-3.904;2024-03-08T11:11:38;14.50;99.90
51007;DHT22;37034;47.886;-3.904;2024-03-08T11:14:43;14.50;99.90
51007;DHT22;37034;47.886;-3.904;2024-03-08T11:17:09;14.50;99.90
51007;DHT22;37034;47.886;-3.904;2024-03-08T11:19:35;14.50;99.90
51007;DHT22;37034;47.886;-3.904;2024-03-08T11:22:02;14.50;99.90
51007;DHT22;37034;47.886;-3.904;2024-03-08T11:24:36;14.70;99.90
51007;DHT22;37034;47.886;-3.904;2024-03-08T11:27:04;14.80;99.90
51007;DHT22;37034;47.886;-3.904;2024-03-08T11:32:15;14.80;99.90
51007;DHT22;37034;47.886;-3.904;2024-03-08T11:34:46;14.90;99.90
51007;DHT22;37034;47.886;-3.904;2024-03-08T11:37:14;14.90;99.90
51007;DHT22;37034;47.886;-3.904;2024-03-08T11:39:46;15.10;99.90
51007;DHT22;37034;47.886;-3.904;2024-03-08T11:42:12;14.90;99.90
51007;DHT22;37034;47.886;-3.904;2024-03-08T11:44:38;14.80;99.90
51007;DHT22;37034;47.886;-3.904;2024-03-08T11:47:14;14.80;99.90
51007;DHT22;37034;47.886;-3.904;2024-03-08T11:49:40;14.70;99.90
51007;DHT22;37034;47.886;-3.904;2024-03-08T11:52:14;14.60;99.90
51007;DHT22;37034;47.886;-3.904;2024-03-08T11:54:51;14.60;99.90
51007;DHT22;37034;47.886;-3.904;2024-03-08T11:57:18;14.60;99.90
51007;DHT22;37034;47.886;-3.904;2024-03-08T11:59:51;14.50;99.90
51007;DHT22;37034;47.886;-3.904;2024-03-08T12:02:17;14.40;99.90
51007;DHT22;37034;47.886;-3.904;2024-03-08T12:04:45;14.40;99.90
51007;DHT22;37034;47.886;-3.904;2024-03-08T12:07:11;14.40;99.90
51007;DHT22;37034;47.886;-3.904;2024-03-08T12:09:40;14.60;99.90
51007;DHT22;37034;47.886;-3.904;2024-03-08T12:12:11;14.50;99.90
51007;DHT22;37034;47.886;-3.904;2024-03-08T12:14:37;14.50;99.90
51007;DHT22;37034;47.886;-3.904;2024-03-08T12:17:03;14.50;99.90
51007;DHT22;37034;47.886;-3.904;2024-03-08T12:19:30;14.40;99.90
51007;DHT22;37034;47.886;-3.904;2024-03-08T12:21:56;14.30;99.90
51007;DHT22;37034;47.886;-3.904;2024-03-08T12:24:22;14.20;99.90
51007;DHT22;37034;47.886;-3.904;2024-03-08T12:26:48;14.20;99.90
51007;DHT22;37034;47.886;-3.904;2024-03-08T12:29:19;14.20;99.90
51007;DHT22;37034;47.886;-3.904;2024-03-08T12:31:54;14.30;99.90
51007;DHT22;37034;47.886;-3.904;2024-03-08T12:34:20;14.30;99.90
51007;DHT22;37034;47.886;-3.904;2024-03-08T12:36:50;14.20;99.90
51007;DHT22;37034;47.886;-3.904;2024-03-08T12:39:19;14.10;99.90
51007;DHT22;37034;47.886;-3.904;2024-03-08T12:41:55;14.00;99.90
51007;DHT22;37034;47.886;-3.904;2024-03-08T12:44:25;14.00;99.90
51007;DHT22;37034;47.886;-3.904;2024-03-08T12:46:51;14.00;99.90
51007;DHT22;37034;47.886;-3.904;2024-03-08T12:49:19;14.00;99.90
51007;DHT22;37034;47.886;-3.904;2024-03-08T12:51:47;14.00;99.90
51007;DHT22;37034;47.886;-3.904;2024-03-08T12:54:13;14.00;99.90
51007;DHT22;37034;47.886;-3.904;2024-03-08T12:56:39;14.10;99.90
51007;DHT22;37034;47.886;-3.904;2024-03-08T12:59:06;14.10;99.90
51007;DHT22;37034;47.886;-3.904;2024-03-08T13:01:38;14.10;99.90
51007;DHT22;37034;47.886;-3.904;2024-03-08T13:04:05;14.10;99.90
51007;DHT22;37034;47.886;-3.904;2024-03-08T13:06:32;14.00;99.90
51007;DHT22;37034;47.886;-3.904;2024-03-08T13:08:58;14.00;99.90
51007;DHT22;37034;47.886;-3.904;2024-03-08T13:11:24;14.00;99.90
51007;DHT22;37034;47.886;-3.904;2024-03-08T13:13:51;14.20;99.90
51007;DHT22;37034;47.886;-3.904;2024-03-08T13:16:18;14.10;99.90
51007;DHT22;37034;47.886;-3.904;2024-03-08T13:18:45;14.00;99.90
51007;DHT22;37034;47.886;-3.904;2024-03-08T13:21:11;14.00;99.90
51007;DHT22;37034;47.886;-3.904;2024-03-08T13:23:40;14.00;99.90
51007;DHT22;37034;47.886;-3.904;2024-03-08T13:26:07;14.20;99.90
51007;DHT22;37034;47.886;-3.904;2024-03-08T13:28:33;14.20;99.90
51007;DHT22;37034;47.886;-3.904;2024-03-08T13:31:06;14.20;99.90
51007;DHT22;37034;47.886;-3.904;2024-03-08T13:33:38;14.30;99.90
51007;DHT22;37034;47.886;-3.904;2024-03-08T13:36:11;14.30;99.90
51007;DHT22;37034;47.886;-3.904;2024-03-08T13:38:47;14.30;99.90
51007;DHT22;37034;47.886;-3.904;2024-03-08T13:41:13;14.30;99.90
51007;DHT22;37034;47.886;-3.904;2024-03-08T13:43:44;14.40;99.90
51007;DHT22;37034;47.886;-3.904;2024-03-08T13:46:10;14.30;99.90
51007;DHT22;37034;47.886;-3.904;2024-03-08T13:48:36;14.30;99.90
51007;DHT22;37034;47.886;-3.904;2024-03-08T13:51:06;14.20;99.90
51007;DHT22;37034;47.886;-3.904;2024-03-08T13:53:32;14.10;99.90
51007;DHT22;37034;47.886;-3.904;2024-03-08T13:55:59;14.20;99.90
51007;DHT22;37034;47.886;-3.904;2024-03-08T13:58:26;14.20;99.90
51007;DHT22;37034;47.886;-3.904;2024-03-08T14:00:51;14.30;99.90
51007;DHT22;37034;47.886;-3.904;2024-03-08T14:03:17;14.40;99.90
51007;DHT22;37034;47.886;-3.904;2024-03-08T14:05:43;14.60;99.90
51007;DHT22;37034;47.886;-3.904;2024-03-08T14:08:10;14.60;99.90
51007;DHT22;37034;47.886;-3.904;2024-03-08T14:10:37;14.70;99.90
51007;DHT22;37034;47.886;-3.904;2024-03-08T14:13:04;14.70;99.90
51007;DHT22;37034;47.886;-3.904;2024-03-08T14:15:34;14.60;99.90
51007;DHT22;37034;47.886;-3.904;2024-03-08T14:18:01;14.60;99.90
51007;DHT22;37034;47.886;-3.904;2024-03-08T14:20:27;14.50;99.90
51007;DHT22;37034;47.886;-3.904;2024-03-08T14:22:56;14.40;99.90
51007;DHT22;37034;47.886;-3.904;2024-03-08T14:25:25;14.40;99.90
51007;DHT22;37034;47.886;-3.904;2024-03-08T14:27:51;14.30;99.90
51007;DHT22;37034;47.886;-3.904;2024-03-08T14:30:19;14.30;99.90
51007;DHT22;37034;47.886;-3.904;2024-03-08T14:33:04;14.40;99.90
51007;DHT22;37034;47.886;-3.904;2024-03-08T14:35:40;14.50;99.90
51007;DHT22;37034;47.886;-3.904;2024-03-08T14:38:05;14.30;99.90
51007;DHT22;37034;47.886;-3.904;2024-03-08T14:40:38;14.20;99.90
51007;DHT22;37034;47.886;-3.904;2024-03-08T14:43:04;14.20;99.90
51007;DHT22;37034;47.886;-3.904;2024-03-08T14:45:30;14.10;99.90
51007;DHT22;37034;47.886;-3.904;2024-03-08T14:47:56;14.10;99.90
51007;DHT22;37034;47.886;-3.904;2024-03-08T14:50:23;14.00;99.90
51007;DHT22;37034;47.886;-3.904;2024-03-08T14:52:49;14.10;99.90
51007;DHT22;37034;47.886;-3.904;2024-03-08T14:55:15;14.20;99.90
51007;DHT22;37034;47.886;-3.904;2024-03-08T14:57:41;14.20;99.90
51007;DHT22;37034;47.886;-3.904;2024-03-08T15:00:08;14.20;99.90
51007;DHT22;37034;47.886;-3.904;2024-03-08T15:02:43;14.20;99.90
51007;DHT22;37034;47.886;-3.904;2024-03-08T15:05:08;14.20;99.90
51007;DHT22;37034;47.886;-3.904;2024-03-08T15:07:40;14.30;99.90
51007;DHT22;37034;47.886;-3.904;2024-03-08T15:10:07;14.30;99.90
51007;DHT22;37034;47.886;-3.904;2024-03-08T15:12:37;14.10;99.90
51007;DHT22;37034;47.886;-3.904;2024-03-08T15:15:08;14.10;99.90
51007;DHT22;37034;47.886;-3.904;2024-03-08T15:17:34;14.10;99.90
51007;DHT22;37034;47.886;-3.904;2024-03-08T15:20:01;14.10;99.90
51007;DHT22;37034;47.886;-3.904;2024-03-08T15:22:26;14.20;99.90
51007;DHT22;37034;47.886;-3.904;2024-03-08T15:24:52;14.30;99.90
51007;DHT22;37034;47.886;-3.904;2024-03-08T15:27:20;14.40;99.90